KFKA

Fillmore County Airport

Preston, Minnesota, USA
METAR KFKA 232315Z AUTO 31008KT 10SM OVC013 M07/M09 A3011 RMK AO2 T10691090
Observed Flight Rules
Jan-23 @ 23:15 UTC (29 minutes ago) Marginal Visual Flight Rules
Wind Visibility Clouds
310° at 8 knots 10 miles
  • Overcast at 1,300' AGL
Temperatures Readings
Current -7°C / 19°F
Dewpoint -9°C / 16°F
Humidity 86%
Altimeter 30.11" Hg
Pressure 1020 hPa
Elevation 389
METAR KFKA 232315Z AUTO 31008KT 10SM OVC013 M07/M09 A3011 RMK AO2 T10691090
Observed Flight Rules
Jan-23 @ 23:15 UTC
(29 minutes ago)
MVFR
Wind Visibility
310° at 8 knots 10 miles
Clouds
  • Overcast at 1,300' AGL
Temperature Dewpoint
-7°C / 19°F -9°C / 16°F
Humidity Altimeter Pressure
86% 30.11" Hg 1020 hPa